Time;durP1;ratioP1;P1;durP2;ratioP2;P2;SDS_P1;SDS_P2;PMS_P1;PMS_P2;Temp;Humidity;BMP_temperature;BMP_pressure;BME280_temperature;BME280_humidity;BME280_pressure;Samples;Min_cycle;Max_cycle;Signal;HPM_P1;HPM_P2
2021/04/03 00:01:20;;;;;;;;;;;7.00;68.20;;;;;;10568426;28;19930;-67
2021/04/03 00:06:21;;;;;;;;;;;7.00;68.60;;;;;;10570738;28;20462;-67
2021/04/03 00:11:22;;;;;;;;;;;6.90;69.30;;;;;;10568961;28;19959;-67
2021/04/03 00:16:24;;;;;;;;;;;6.90;70.20;;;;;;10569532;28;20031;-67
2021/04/03 00:21:25;;;;;;;;;;;6.90;70.30;;;;;;10567556;28;20015;-67
2021/04/03 00:26:26;;;;;;;;;;;6.80;71.20;;;;;;10569551;28;20423;-67
2021/04/03 00:31:27;;;;;;;;;;;6.80;72.00;;;;;;10567688;28;20008;-68
2021/04/03 00:36:29;;;;;;;;;;;6.80;72.20;;;;;;10569155;28;19923;-67
2021/04/03 00:41:30;;;;;;;;;;;6.70;73.10;;;;;;10568968;28;20007;-67
2021/04/03 00:46:31;;;;;;;;;;;6.80;73.50;;;;;;10568880;28;20019;-67
2021/04/03 00:51:33;;;;;;;;;;;6.70;73.60;;;;;;10568995;28;19923;-67
2021/04/03 00:56:35;;;;;;;;;;;6.70;74.20;;;;;;10569805;28;20395;-67
2021/04/03 01:01:36;;;;;;;;;;;6.60;74.90;;;;;;10568937;28;20013;-67
2021/04/03 01:06:37;;;;;;;;;;;6.70;76.00;;;;;;10570115;28;19924;-67
2021/04/03 01:11:41;;;;;;;;;;;6.60;75.90;;;;;;10569631;28;19970;-67
2021/04/03 01:17:02;;;;;;;;;;;6.50;76.90;;;;;;10569416;28;20018;-67
2021/04/03 01:22:16;;;;;;;;;;;6.50;78.10;;;;;;10568927;28;19927;-67
2021/04/03 01:27:22;;;;;;;;;;;6.50;78.40;;;;;;10551116;28;21227;-67
2021/04/03 01:32:25;;;;;;;;;;;6.50;78.70;;;;;;10568845;28;19934;-67
2021/04/03 01:37:27;;;;;;;;;;;6.40;79.90;;;;;;10568964;28;19923;-67
2021/04/03 01:42:33;;;;;;;;;;;6.30;81.80;;;;;;10569804;28;19928;-67
2021/04/03 01:47:38;;;;;;;;;;;6.30;83.10;;;;;;10576103;28;19980;-68
2021/04/03 01:52:41;;;;;;;;;;;6.20;84.70;;;;;;10577281;28;19928;-67
2021/04/03 01:57:46;;;;;;;;;;;6.30;85.60;;;;;;10576042;28;19931;-67
2021/04/03 02:02:48;;;;;;;;;;;6.30;86.20;;;;;;10579834;28;20020;-67
2021/04/03 02:07:50;;;;;;;;;;;6.30;87.80;;;;;;10584095;28;20454;-67
2021/04/03 02:12:51;;;;;;;;;;;6.20;90.00;;;;;;10584048;28;20212;-67
2021/04/03 02:17:55;;;;;;;;;;;6.20;90.40;;;;;;10581349;28;19967;-67
2021/04/03 02:22:57;;;;;;;;;;;6.10;90.90;;;;;;10572547;28;20345;-67
2021/04/03 02:27:58;;;;;;;;;;;6.00;92.20;;;;;;10583426;28;20291;-67
2021/04/03 02:32:59;;;;;;;;;;;5.80;93.40;;;;;;10564531;28;19978;-67
2021/04/03 02:38:02;;;;;;;;;;;5.60;95.20;;;;;;10582944;28;19928;-67
2021/04/03 02:43:05;;;;;;;;;;;5.40;97.70;;;;;;10564260;28;19982;-67
2021/04/03 02:48:16;;;;;;;;;;;5.40;98.60;;;;;;10581734;28;20380;-67
2021/04/03 02:53:20;;;;;;;;;;;5.30;99.90;;;;;;10581933;28;19963;-67
2021/04/03 02:58:22;;;;;;;;;;;5.30;99.90;;;;;;10582211;28;20011;-67
2021/04/03 03:03:25;;;;;;;;;;;5.20;99.90;;;;;;10558772;27;20026;-67
2021/04/03 03:08:27;;;;;;;;;;;5.20;99.90;;;;;;10575154;28;20019;-67
2021/04/03 03:13:31;;;;;;;;;;;5.20;99.90;;;;;;10573462;28;19967;-67
2021/04/03 03:18:32;;;;;;;;;;;5.30;99.90;;;;;;10556076;28;19924;-67
2021/04/03 03:23:34;;;;;;;;;;;5.50;99.90;;;;;;10574028;28;19934;-67
2021/04/03 03:28:36;;;;;;;;;;;5.60;99.90;;;;;;10573456;28;19984;-67
2021/04/03 03:33:37;;;;;;;;;;;5.60;99.90;;;;;;10573490;28;19975;-67
2021/04/03 03:38:39;;;;;;;;;;;5.80;99.90;;;;;;10573718;28;20018;-67
2021/04/03 03:43:40;;;;;;;;;;;5.90;99.90;;;;;;10571944;28;19977;-66
2021/04/03 03:48:42;;;;;;;;;;;6.00;99.90;;;;;;10572425;28;19959;-67
2021/04/03 03:53:43;;;;;;;;;;;6.00;99.90;;;;;;10572578;28;19967;-67
2021/04/03 03:58:44;;;;;;;;;;;6.00;99.90;;;;;;10572107;28;20010;-67
2021/04/03 04:03:46;;;;;;;;;;;6.00;99.90;;;;;;10572185;28;20018;-67
2021/04/03 04:08:47;;;;;;;;;;;6.00;99.90;;;;;;10572008;28;19971;-67
2021/04/03 04:13:49;;;;;;;;;;;6.10;99.90;;;;;;10571756;28;20552;-67
2021/04/03 04:18:50;;;;;;;;;;;5.90;99.90;;;;;;10570838;28;19978;-67
2021/04/03 04:23:51;;;;;;;;;;;5.80;99.90;;;;;;10571500;28;20447;-67
2021/04/03 04:28:53;;;;;;;;;;;5.70;99.90;;;;;;10571903;28;20018;-67
2021/04/03 04:33:54;;;;;;;;;;;5.50;99.90;;;;;;10571092;28;19962;-67
2021/04/03 04:38:55;;;;;;;;;;;5.40;99.90;;;;;;10571512;28;20025;-67
2021/04/03 04:43:56;;;;;;;;;;;5.20;99.90;;;;;;10570915;28;19934;-67
2021/04/03 04:48:58;;;;;;;;;;;5.00;99.90;;;;;;10552405;28;20019;-67
2021/04/03 04:53:59;;;;;;;;;;;4.90;99.90;;;;;;10570827;28;20006;-67
2021/04/03 04:59:00;;;;;;;;;;;5.00;99.90;;;;;;10569243;28;20372;-67
2021/04/03 05:04:02;;;;;;;;;;;5.20;99.90;;;;;;10570821;28;19924;-67
2021/04/03 05:09:03;;;;;;;;;;;5.30;99.90;;;;;;10570775;28;19970;-67
2021/04/03 05:14:04;;;;;;;;;;;5.30;99.90;;;;;;10571095;28;20026;-67
2021/04/03 05:19:06;;;;;;;;;;;5.40;99.90;;;;;;10574526;28;20296;-67
2021/04/03 05:24:07;;;;;;;;;;;5.40;99.90;;;;;;10578410;28;19934;-67
2021/04/03 05:29:08;;;;;;;;;;;5.40;99.90;;;;;;10578532;28;19923;-67
2021/04/03 05:34:10;;;;;;;;;;;5.20;99.10;;;;;;10578927;28;19932;-66
2021/04/03 05:39:11;;;;;;;;;;;5.00;99.70;;;;;;10577378;28;19974;-67
2021/04/03 05:44:13;;;;;;;;;;;5.00;99.50;;;;;;10577571;28;20421;-67
2021/04/03 05:49:15;;;;;;;;;;;5.00;99.70;;;;;;10577800;28;19928;-67
2021/04/03 05:54:17;;;;;;;;;;;4.90;99.90;;;;;;10563318;28;19959;-67
2021/04/03 05:59:18;;;;;;;;;;;4.90;99.90;;;;;;10577004;28;19930;-67
2021/04/03 06:04:19;;;;;;;;;;;4.90;99.50;;;;;;10577508;28;20019;-67
2021/04/03 06:09:21;;;;;;;;;;;4.90;99.10;;;;;;10577531;28;19974;-67
2021/04/03 06:14:22;;;;;;;;;;;5.10;98.90;;;;;;10576877;28;20447;-67
2021/04/03 06:19:24;;;;;;;;;;;5.00;98.90;;;;;;10576749;28;20011;-67
2021/04/03 06:24:29;;;;;;;;;;;5.00;98.00;;;;;;10576075;28;19996;-67
2021/04/03 06:29:36;;;;;;;;;;;5.10;97.00;;;;;;10553531;28;19924;-67
2021/04/03 06:34:39;;;;;;;;;;;5.00;97.20;;;;;;10576615;28;19942;-67
2021/04/03 06:39:51;;;;;;;;;;;5.10;95.60;;;;;;10576237;28;19982;-67
2021/04/03 06:44:52;;;;;;;;;;;5.10;94.80;;;;;;10575337;28;19924;-67
2021/04/03 06:49:53;;;;;;;;;;;5.20;94.40;;;;;;10574314;28;20275;-67
2021/04/03 06:54:55;;;;;;;;;;;5.20;93.60;;;;;;10557052;28;19967;-66
2021/04/03 06:59:56;;;;;;;;;;;5.40;92.90;;;;;;10574337;28;19931;-66
2021/04/03 07:04:59;;;;;;;;;;;5.40;92.10;;;;;;10557152;28;19970;-66
2021/04/03 07:10:01;;;;;;;;;;;5.40;91.00;;;;;;10574144;28;19930;-67
2021/04/03 07:15:02;;;;;;;;;;;5.60;89.30;;;;;;10572773;28;20133;-67
2021/04/03 07:20:04;;;;;;;;;;;5.60;88.00;;;;;;10573784;28;20006;-66
2021/04/03 07:25:07;;;;;;;;;;;5.80;85.30;;;;;;10574238;28;20496;-67
2021/04/03 07:30:09;;;;;;;;;;;5.90;82.40;;;;;;10573420;28;19928;-67
2021/04/03 07:35:14;;;;;;;;;;;6.00;80.50;;;;;;10561065;27;19924;-67
2021/04/03 07:40:24;;;;;;;;;;;5.90;80.10;;;;;;10459217;28;20019;-66
2021/04/03 07:45:28;;;;;;;;;;;6.10;78.00;;;;;;10486943;28;19924;-66
2021/04/03 07:50:39;;;;;;;;;;;6.50;76.20;;;;;;10486887;28;19924;-66
2021/04/03 07:55:42;;;;;;;;;;;7.20;73.50;;;;;;10482224;28;20005;-66
2021/04/03 08:00:44;;;;;;;;;;;7.50;69.20;;;;;;10485664;28;20018;-66
2021/04/03 08:05:46;;;;;;;;;;;7.80;67.90;;;;;;10486027;28;20333;-66
2021/04/03 08:10:47;;;;;;;;;;;8.40;63.90;;;;;;10485375;28;20023;-62
2021/04/03 08:15:49;;;;;;;;;;;8.90;65.10;;;;;;10485547;28;20399;-61
2021/04/03 08:20:53;;;;;;;;;;;9.10;59.70;;;;;;10484740;28;20019;-62
2021/04/03 08:25:55;;;;;;;;;;;9.40;59.00;;;;;;10483152;28;19925;-62
2021/04/03 08:30:56;;;;;;;;;;;9.40;58.00;;;;;;10482464;28;20089;-62
2021/04/03 08:35:57;;;;;;;;;;;9.40;58.70;;;;;;10478550;28;19924;-62
2021/04/03 08:40:59;;;;;;;;;;;9.50;57.80;;;;;;10482214;28;19928;-62
2021/04/03 08:46:05;;;;;;;;;;;9.40;57.50;;;;;;10477813;28;20376;-62
2021/04/03 08:51:07;;;;;;;;;;;9.30;56.40;;;;;;10480403;28;19978;-62
2021/04/03 08:56:10;;;;;;;;;;;9.30;56.20;;;;;;10482507;28;19928;-62
2021/04/03 09:01:12;;;;;;;;;;;9.40;56.50;;;;;;10482656;28;19990;-62
2021/04/03 09:06:15;;;;;;;;;;;9.80;56.00;;;;;;10482467;28;20300;-62
2021/04/03 09:11:17;;;;;;;;;;;9.90;55.70;;;;;;10478936;28;20019;-62
2021/04/03 09:16:18;;;;;;;;;;;10.00;56.00;;;;;;10476035;28;20001;-62
2021/04/03 09:21:22;;;;;;;;;;;10.20;55.00;;;;;;10479557;28;20015;-62
2021/04/03 09:26:34;;;;;;;;;;;10.50;55.10;;;;;;10482381;28;20108;-62
2021/04/03 09:31:42;;;;;;;;;;;10.30;54.30;;;;;;10482170;28;19959;-62
2021/04/03 09:36:46;;;;;;;;;;;10.60;54.20;;;;;;10472285;28;19924;-62
2021/04/03 09:41:49;;;;;;;;;;;11.00;53.20;;;;;;10442173;28;19947;-62
2021/04/03 09:46:52;;;;;;;;;;;10.90;53.10;;;;;;10463321;28;20010;-62
2021/04/03 09:51:53;;;;;;;;;;;11.10;52.10;;;;;;10478558;28;19935;-62
2021/04/03 09:56:54;;;;;;;;;;;11.00;52.70;;;;;;10474007;28;20011;-62
2021/04/03 10:01:56;;;;;;;;;;;11.40;51.40;;;;;;10482156;28;20015;-62
2021/04/03 10:06:58;;;;;;;;;;;11.10;52.00;;;;;;10489917;28;20019;-62
2021/04/03 10:11:59;;;;;;;;;;;11.40;52.30;;;;;;10488741;28;20019;-62
2021/04/03 10:17:00;;;;;;;;;;;11.40;50.40;;;;;;10489145;28;20011;-62
2021/04/03 10:22:02;;;;;;;;;;;11.70;50.50;;;;;;10489193;28;19924;-62
2021/04/03 10:27:03;;;;;;;;;;;11.40;48.40;;;;;;10490277;28;20022;-62
2021/04/03 10:32:05;;;;;;;;;;;11.60;49.50;;;;;;10487466;28;20257;-62
2021/04/03 10:37:07;;;;;;;;;;;12.40;48.80;;;;;;10483508;28;20323;-62
2021/04/03 10:42:08;;;;;;;;;;;12.50;48.20;;;;;;10488798;28;20020;-62
2021/04/03 10:47:09;;;;;;;;;;;12.30;47.60;;;;;;10488254;28;20010;-62
2021/04/03 10:52:11;;;;;;;;;;;12.00;48.70;;;;;;10487355;28;19940;-62
2021/04/03 10:57:12;;;;;;;;;;;12.00;46.80;;;;;;10487750;28;19934;-62
2021/04/03 11:02:13;;;;;;;;;;;11.80;48.80;;;;;;10488151;28;19933;-62
2021/04/03 11:07:15;;;;;;;;;;;12.00;45.00;;;;;;10515319;28;20011;-62
2021/04/03 11:12:16;;;;;;;;;;;12.00;45.50;;;;;;10486648;28;19997;-63
2021/04/03 11:17:18;;;;;;;;;;;12.60;45.10;;;;;;10487264;28;19968;-62
2021/04/03 11:22:19;;;;;;;;;;;12.60;46.60;;;;;;10484945;28;20015;-63
2021/04/03 11:27:20;;;;;;;;;;;13.00;45.40;;;;;;10486234;28;20011;-62
2021/04/03 11:32:21;;;;;;;;;;;13.50;43.70;;;;;;10484536;28;19993;-63
2021/04/03 11:37:23;;;;;;;;;;;13.40;42.90;;;;;;10486651;28;20023;-62
2021/04/03 11:42:25;;;;;;;;;;;12.70;42.40;;;;;;10482563;28;19947;-62
2021/04/03 11:47:26;;;;;;;;;;;12.20;44.20;;;;;;10489422;28;20312;-62
2021/04/03 11:52:28;;;;;;;;;;;12.40;44.30;;;;;;10496177;28;19972;-62
2021/04/03 11:57:30;;;;;;;;;;;12.80;42.70;;;;;;10466628;28;19925;-63
2021/04/03 12:02:31;;;;;;;;;;;13.40;42.10;;;;;;10478217;28;20011;-63
2021/04/03 12:07:36;;;;;;;;;;;13.40;40.70;;;;;;10487473;28;20216;-63
2021/04/03 12:12:39;;;;;;;;;;;13.30;40.60;;;;;;10517190;28;20023;-62
2021/04/03 12:17:41;;;;;;;;;;;13.60;39.10;;;;;;10478530;28;19963;-63
2021/04/03 12:22:42;;;;;;;;;;;13.30;41.00;;;;;;10458737;28;20007;-62
2021/04/03 12:27:44;;;;;;;;;;;13.10;41.00;;;;;;10482988;28;19960;-63
2021/04/03 12:32:45;;;;;;;;;;;13.30;40.70;;;;;;10481128;28;20122;-62
2021/04/03 12:37:46;;;;;;;;;;;13.90;38.90;;;;;;10485040;28;20015;-63
2021/04/03 12:42:48;;;;;;;;;;;13.50;37.40;;;;;;10476882;28;20374;-63
2021/04/03 12:47:49;;;;;;;;;;;13.80;38.80;;;;;;10484485;28;19935;-63
2021/04/03 12:52:50;;;;;;;;;;;14.10;38.70;;;;;;10478783;28;20003;-62
2021/04/03 12:57:52;;;;;;;;;;;14.00;36.90;;;;;;10488982;28;19931;-62
2021/04/03 13:02:54;;;;;;;;;;;13.40;37.80;;;;;;10501821;28;19925;-62
2021/04/03 13:07:55;;;;;;;;;;;13.10;38.50;;;;;;10477020;28;20423;-62
2021/04/03 13:12:56;;;;;;;;;;;12.90;37.60;;;;;;10474991;28;20049;-62
2021/04/03 13:17:58;;;;;;;;;;;13.50;37.80;;;;;;10484229;28;20013;-62
2021/04/03 13:23:02;;;;;;;;;;;13.60;36.10;;;;;;10483620;28;20619;-63
2021/04/03 13:28:03;;;;;;;;;;;13.40;36.30;;;;;;10483459;28;20019;-63
2021/04/03 13:33:05;;;;;;;;;;;13.20;36.30;;;;;;10483719;28;20045;-63
2021/04/03 13:38:06;;;;;;;;;;;13.70;35.80;;;;;;10484050;28;19952;-62
2021/04/03 13:43:07;;;;;;;;;;;14.30;37.00;;;;;;10482583;28;20442;-63
2021/04/03 13:48:09;;;;;;;;;;;13.80;35.60;;;;;;10492656;28;20071;-63
2021/04/03 13:53:10;;;;;;;;;;;13.60;36.00;;;;;;10491433;28;20419;-63
2021/04/03 13:58:15;;;;;;;;;;;13.30;34.90;;;;;;10490549;28;20384;-63
2021/04/03 14:03:17;;;;;;;;;;;13.40;35.00;;;;;;10491608;28;20344;-62
2021/04/03 14:08:18;;;;;;;;;;;13.80;35.80;;;;;;10491087;28;19967;-63
2021/04/03 14:13:19;;;;;;;;;;;13.70;36.20;;;;;;10490260;28;20027;-63
2021/04/03 14:18:21;;;;;;;;;;;13.70;35.20;;;;;;10491041;28;19929;-62
2021/04/03 14:23:22;;;;;;;;;;;13.20;35.70;;;;;;10490797;28;19924;-62
2021/04/03 14:28:23;;;;;;;;;;;13.40;36.30;;;;;;10489349;28;19924;-62
2021/04/03 14:33:24;;;;;;;;;;;13.70;36.90;;;;;;10489109;28;20303;-62
2021/04/03 14:38:26;;;;;;;;;;;13.30;37.10;;;;;;10488263;28;20793;-62
2021/04/03 14:43:28;;;;;;;;;;;12.90;37.80;;;;;;10481993;28;19952;-62
2021/04/03 14:48:30;;;;;;;;;;;13.00;37.00;;;;;;10496828;28;19931;-62
2021/04/03 14:53:31;;;;;;;;;;;13.20;36.30;;;;;;10510182;28;20019;-63
2021/04/03 14:58:33;;;;;;;;;;;13.00;35.70;;;;;;10490431;28;19967;-62
2021/04/03 15:03:34;;;;;;;;;;;12.60;37.10;;;;;;10490227;28;19932;-62
2021/04/03 15:08:36;;;;;;;;;;;12.60;37.20;;;;;;10490057;28;20332;-62
2021/04/03 15:13:38;;;;;;;;;;;12.60;37.50;;;;;;10489558;28;19934;-62
2021/04/03 15:18:40;;;;;;;;;;;12.70;36.50;;;;;;10489630;28;20361;-63
2021/04/03 15:23:47;;;;;;;;;;;12.60;36.60;;;;;;10488391;28;19932;-63
2021/04/03 15:28:48;;;;;;;;;;;12.40;37.60;;;;;;10489515;28;19974;-62
2021/04/03 15:33:50;;;;;;;;;;;12.60;38.20;;;;;;10488354;28;20031;-62
2021/04/03 15:38:51;;;;;;;;;;;12.70;38.40;;;;;;10489234;28;20273;-62
2021/04/03 15:43:52;;;;;;;;;;;12.30;38.00;;;;;;10488956;28;20003;-62
2021/04/03 15:48:55;;;;;;;;;;;12.20;38.20;;;;;;10489203;28;19986;-62
2021/04/03 15:53:56;;;;;;;;;;;12.30;37.80;;;;;;10489294;28;19924;-62
2021/04/03 15:58:57;;;;;;;;;;;12.40;37.00;;;;;;10487428;28;20011;-62
2021/04/03 16:03:58;;;;;;;;;;;12.40;36.40;;;;;;10487693;28;19924;-62
2021/04/03 16:09:00;;;;;;;;;;;12.30;37.00;;;;;;10485579;28;20462;-63
2021/04/03 16:14:12;;;;;;;;;;;12.20;38.20;;;;;;10484821;28;19929;-62
2021/04/03 16:19:14;;;;;;;;;;;12.30;39.40;;;;;;10485938;28;20027;-62
2021/04/03 16:24:15;;;;;;;;;;;12.00;38.90;;;;;;10486102;28;20082;-62
2021/04/03 16:29:16;;;;;;;;;;;11.80;38.70;;;;;;10487585;28;20343;-62
2021/04/03 16:34:18;;;;;;;;;;;11.50;37.70;;;;;;10487473;28;19974;-63
2021/04/03 16:39:19;;;;;;;;;;;11.30;38.10;;;;;;10488395;28;19970;-62
2021/04/03 16:44:20;;;;;;;;;;;11.20;38.50;;;;;;10486932;28;20015;-63
2021/04/03 16:49:25;;;;;;;;;;;11.20;38.90;;;;;;10487400;28;19960;-63
2021/04/03 16:54:27;;;;;;;;;;;11.10;39.10;;;;;;10487177;28;19924;-63
2021/04/03 16:59:28;;;;;;;;;;;10.90;39.00;;;;;;10485516;28;20295;-63
2021/04/03 17:04:29;;;;;;;;;;;10.80;39.90;;;;;;10486732;28;19984;-62
2021/04/03 17:09:30;;;;;;;;;;;10.60;39.50;;;;;;10486430;28;19924;-63
2021/04/03 17:14:32;;;;;;;;;;;10.50;39.60;;;;;;10479652;28;19940;-62
2021/04/03 17:19:35;;;;;;;;;;;10.40;39.70;;;;;;10513432;28;19931;-62
2021/04/03 17:24:36;;;;;;;;;;;10.50;40.10;;;;;;10493278;28;20419;-62
2021/04/03 17:29:37;;;;;;;;;;;10.40;41.00;;;;;;10492350;28;19931;-63
2021/04/03 17:34:39;;;;;;;;;;;10.40;40.50;;;;;;10493119;28;19924;-62
2021/04/03 17:39:40;;;;;;;;;;;10.30;41.60;;;;;;10493222;28;19964;-62
2021/04/03 17:44:42;;;;;;;;;;;10.20;41.10;;;;;;10491861;28;20274;-62
2021/04/03 17:49:43;;;;;;;;;;;10.10;41.40;;;;;;10466401;28;20388;-62
2021/04/03 17:54:44;;;;;;;;;;;9.90;41.80;;;;;;10492128;28;20039;-62
2021/04/03 17:59:46;;;;;;;;;;;9.80;42.70;;;;;;10491543;28;20011;-62
2021/04/03 18:04:47;;;;;;;;;;;9.60;43.30;;;;;;10492437;28;20027;-62
2021/04/03 18:09:48;;;;;;;;;;;9.40;43.80;;;;;;10491440;28;20426;-62
2021/04/03 18:14:50;;;;;;;;;;;9.30;44.30;;;;;;10466316;28;20019;-63
2021/04/03 18:19:51;;;;;;;;;;;9.10;44.30;;;;;;10491754;28;19929;-63
2021/04/03 18:24:52;;;;;;;;;;;9.00;44.70;;;;;;10481858;28;20051;-62
2021/04/03 18:29:53;;;;;;;;;;;8.80;44.90;;;;;;10490501;28;19931;-63
2021/04/03 18:34:55;;;;;;;;;;;8.70;45.50;;;;;;10490645;28;19978;-62
2021/04/03 18:39:56;;;;;;;;;;;8.70;46.40;;;;;;10489511;28;20031;-63
2021/04/03 18:44:58;;;;;;;;;;;8.60;46.00;;;;;;10488137;28;19964;-63
2021/04/03 18:49:59;;;;;;;;;;;8.40;46.50;;;;;;10490560;28;20043;-62
2021/04/03 18:55:03;;;;;;;;;;;8.30;46.60;;;;;;10485900;28;20011;-63
2021/04/03 19:00:05;;;;;;;;;;;8.30;47.40;;;;;;10503039;28;19924;-71
2021/04/03 19:05:07;;;;;;;;;;;8.30;47.10;;;;;;10489894;28;19986;-71
2021/04/03 19:10:09;;;;;;;;;;;8.20;47.90;;;;;;10488319;28;20273;-72
2021/04/03 19:15:11;;;;;;;;;;;8.00;48.40;;;;;;10489329;28;19924;-72
2021/04/03 19:20:15;;;;;;;;;;;8.00;48.20;;;;;;10489880;28;19978;-71
2021/04/03 19:25:16;;;;;;;;;;;7.90;47.80;;;;;;10489971;28;20023;-72
2021/04/03 19:30:18;;;;;;;;;;;7.80;48.70;;;;;;10489433;28;19924;-72
2021/04/03 19:35:19;;;;;;;;;;;7.60;49.50;;;;;;10489075;28;19930;-72
2021/04/03 19:40:22;;;;;;;;;;;7.60;50.30;;;;;;10488833;28;19931;-72
2021/04/03 19:45:23;;;;;;;;;;;7.50;50.70;;;;;;10488934;28;19963;-72
2021/04/03 19:50:24;;;;;;;;;;;7.40;51.00;;;;;;10486192;28;19928;-71
2021/04/03 19:55:26;;;;;;;;;;;7.30;51.30;;;;;;10486814;28;19946;-72
2021/04/03 20:00:28;;;;;;;;;;;7.20;51.80;;;;;;10487733;28;20111;-72
2021/04/03 20:05:29;;;;;;;;;;;7.20;52.10;;;;;;10488426;28;19971;-72
2021/04/03 20:10:30;;;;;;;;;;;7.00;52.50;;;;;;10488324;28;20011;-72
2021/04/03 20:15:31;;;;;;;;;;;7.00;53.00;;;;;;10487213;28;19928;-72
2021/04/03 20:20:35;;;;;;;;;;;6.90;52.80;;;;;;10488321;28;20021;-72
2021/04/03 20:25:37;;;;;;;;;;;6.70;53.90;;;;;;10487810;28;19928;-72
2021/04/03 20:30:39;;;;;;;;;;;6.60;54.40;;;;;;10487015;28;20011;-72
2021/04/03 20:35:40;;;;;;;;;;;6.50;54.40;;;;;;10486714;28;19976;-72
2021/04/03 20:40:41;;;;;;;;;;;6.30;54.50;;;;;;10484904;28;20011;-72
2021/04/03 20:45:43;;;;;;;;;;;6.20;55.50;;;;;;10484387;28;20014;-72
2021/04/03 20:50:44;;;;;;;;;;;6.10;56.00;;;;;;10486352;28;20012;-71
2021/04/03 20:55:46;;;;;;;;;;;6.00;56.30;;;;;;10485085;28;19955;-71
2021/04/03 21:00:49;;;;;;;;;;;5.90;56.50;;;;;;10485237;28;20351;-72
2021/04/03 21:05:51;;;;;;;;;;;5.80;57.50;;;;;;10486123;28;19924;-71
2021/04/03 21:10:52;;;;;;;;;;;5.60;57.80;;;;;;10486800;28;19933;-72
2021/04/03 21:15:54;;;;;;;;;;;5.50;58.20;;;;;;10485333;28;19931;-71
2021/04/03 21:20:56;;;;;;;;;;;5.40;58.70;;;;;;10483887;28;19924;-71
2021/04/03 21:25:57;;;;;;;;;;;5.30;59.50;;;;;;10485158;28;19928;-72
2021/04/03 21:30:59;;;;;;;;;;;5.20;59.80;;;;;;10485745;28;19924;-72
2021/04/03 21:36:00;;;;;;;;;;;5.10;60.10;;;;;;10484752;28;20019;-71
2021/04/03 21:41:02;;;;;;;;;;;5.10;60.80;;;;;;10485628;28;20030;-71
2021/04/03 21:46:03;;;;;;;;;;;5.10;61.70;;;;;;10484731;28;19940;-71
2021/04/03 21:51:05;;;;;;;;;;;5.10;62.00;;;;;;10484339;28;19978;-71
2021/04/03 21:56:07;;;;;;;;;;;5.00;62.50;;;;;;10484656;28;20380;-72
2021/04/03 22:01:08;;;;;;;;;;;4.90;63.50;;;;;;10488872;28;19999;-71
2021/04/03 22:06:10;;;;;;;;;;;4.70;64.50;;;;;;10492350;28;19987;-71
2021/04/03 22:11:11;;;;;;;;;;;4.60;65.70;;;;;;10492701;28;19925;-71
2021/04/03 22:16:12;;;;;;;;;;;4.40;66.70;;;;;;10491327;28;20031;-71
2021/04/03 22:21:14;;;;;;;;;;;4.40;68.30;;;;;;10491596;28;19932;-71
2021/04/03 22:26:15;;;;;;;;;;;4.40;68.90;;;;;;10491592;28;20009;-72
2021/04/03 22:31:17;;;;;;;;;;;4.40;69.50;;;;;;10489808;28;20019;-72
2021/04/03 22:36:18;;;;;;;;;;;4.30;70.50;;;;;;10490197;28;19967;-71
2021/04/03 22:41:19;;;;;;;;;;;4.20;72.20;;;;;;10491323;28;20023;-71
2021/04/03 22:46:21;;;;;;;;;;;4.20;72.40;;;;;;10489685;28;19928;-71
2021/04/03 22:51:22;;;;;;;;;;;4.10;75.40;;;;;;10490508;28;19999;-72
2021/04/03 22:56:23;;;;;;;;;;;4.10;78.00;;;;;;10490635;28;19924;-72
2021/04/03 23:01:25;;;;;;;;;;;4.00;78.90;;;;;;10489045;28;20031;-71
2021/04/03 23:06:26;;;;;;;;;;;3.80;80.20;;;;;;10490313;28;20292;-71
2021/04/03 23:11:27;;;;;;;;;;;3.70;83.30;;;;;;10485115;28;19924;-71
2021/04/03 23:16:28;;;;;;;;;;;3.60;85.40;;;;;;10489544;28;20031;-71
2021/04/03 23:21:30;;;;;;;;;;;3.60;86.40;;;;;;10489012;28;19929;-71
2021/04/03 23:26:31;;;;;;;;;;;3.60;89.70;;;;;;10489183;28;19925;-71
2021/04/03 23:31:33;;;;;;;;;;;3.50;90.70;;;;;;10487653;28;20026;-71
2021/04/03 23:36:34;;;;;;;;;;;3.40;91.00;;;;;;10487807;28;20432;-71
2021/04/03 23:41:36;;;;;;;;;;;3.40;92.60;;;;;;10487973;28;19924;-71
2021/04/03 23:46:38;;;;;;;;;;;3.40;93.10;;;;;;10487425;28;20365;-71
2021/04/03 23:51:39;;;;;;;;;;;3.40;94.00;;;;;;10488040;28;19924;-71
2021/04/03 23:56:40;;;;;;;;;;;3.40;93.50;;;;;;10487854;28;20025;-71
